createdAt,value
2023-03-15T00:00:11.977Z,0.60
2023-03-15T00:02:41.702Z,0.65
2023-03-15T00:05:14.089Z,0.40
2023-03-15T00:07:42.258Z,0.65
2023-03-15T00:10:11.598Z,0.68
2023-03-15T00:12:39.785Z,0.57
2023-03-15T00:15:08.862Z,0.43
2023-03-15T00:17:37.079Z,0.60
2023-03-15T00:20:06.770Z,0.52
2023-03-15T00:22:36.515Z,0.50
2023-03-15T00:25:05.018Z,0.60
2023-03-15T00:27:33.183Z,0.68
2023-03-15T00:30:01.638Z,0.50
2023-03-15T00:32:29.847Z,0.50
2023-03-15T00:34:58.052Z,0.60
2023-03-15T00:37:26.446Z,0.68
2023-03-15T00:39:56.489Z,0.50
2023-03-15T00:44:56.458Z,0.60
2023-03-15T00:47:24.795Z,0.53
2023-03-15T00:49:53.224Z,0.82
2023-03-15T00:52:22.198Z,0.60
2023-03-15T00:54:53.367Z,0.50
2023-03-15T00:57:23.583Z,0.65
2023-03-15T00:59:53.198Z,0.60
2023-03-15T01:02:22.345Z,0.57
2023-03-15T01:04:51.322Z,0.87
2023-03-15T01:07:19.523Z,0.60
2023-03-15T01:09:48.588Z,0.40
2023-03-15T01:12:16.874Z,0.70
2023-03-15T01:14:46.426Z,0.70
2023-03-15T01:17:14.589Z,0.50
2023-03-15T01:19:42.738Z,0.50
2023-03-15T01:22:10.953Z,0.60
2023-03-15T01:24:39.068Z,0.40
2023-03-15T01:27:07.283Z,0.52
2023-03-15T01:29:35.688Z,0.50
2023-03-15T01:32:05.702Z,0.50
2023-03-15T01:34:34.159Z,0.50
2023-03-15T01:37:02.971Z,0.52
2023-03-15T01:39:31.148Z,0.80
2023-03-15T01:41:59.353Z,0.52
2023-03-15T01:44:50.946Z,0.55
2023-03-15T01:47:21.034Z,0.55
2023-03-15T01:49:55.882Z,0.50
2023-03-15T01:52:30.368Z,0.80
2023-03-15T01:55:02.341Z,0.40
2023-03-15T01:57:36.310Z,0.50
2023-03-15T02:00:11.590Z,0.63
2023-03-15T02:02:46.565Z,0.60
2023-03-15T02:05:19.810Z,0.50
2023-03-15T02:07:51.001Z,0.40
2023-03-15T02:10:24.343Z,0.50
2023-03-15T02:12:54.209Z,0.30
2023-03-15T02:15:22.349Z,0.55
2023-03-15T02:17:52.140Z,0.30
2023-03-15T02:20:31.767Z,0.60
2023-03-15T02:23:03.382Z,0.30
2023-03-15T02:25:40.729Z,0.47
2023-03-15T02:28:13.073Z,0.47
2023-03-15T02:30:41.393Z,0.50
2023-03-15T02:33:16.203Z,0.57
2023-03-15T02:35:44.428Z,0.52
2023-03-15T02:38:12.600Z,0.52
2023-03-15T02:40:40.892Z,0.55
2023-03-15T02:43:14.975Z,0.77
2023-03-15T02:45:43.857Z,0.60
2023-03-15T02:48:13.023Z,0.50
2023-03-15T02:50:41.349Z,0.50
2023-03-15T02:53:09.777Z,0.50
2023-03-15T02:55:37.969Z,0.35
2023-03-15T02:58:06.264Z,0.88
2023-03-15T03:00:35.827Z,0.63
2023-03-15T03:03:04.010Z,0.60
2023-03-15T03:05:32.283Z,0.40
2023-03-15T03:08:00.420Z,0.60
2023-03-15T03:10:28.535Z,0.88
2023-03-15T03:12:56.733Z,0.45
2023-03-15T03:15:24.893Z,0.50
2023-03-15T03:17:54.571Z,0.70
2023-03-15T03:20:22.743Z,0.50
2023-03-15T03:22:50.903Z,0.57
2023-03-15T03:25:19.172Z,0.52
2023-03-15T03:27:47.302Z,0.80
2023-03-15T03:30:16.336Z,0.70
2023-03-15T03:32:44.552Z,0.63
2023-03-15T03:35:15.978Z,0.50
2023-03-15T03:37:44.381Z,0.60
2023-03-15T03:40:13.859Z,0.70
2023-03-15T03:42:42.024Z,0.40
2023-03-15T03:45:11.012Z,0.52
2023-03-15T03:47:39.178Z,0.47
2023-03-15T03:50:08.301Z,0.60
2023-03-15T03:52:37.870Z,0.50
2023-03-15T03:55:06.604Z,0.60
2023-03-15T03:57:35.586Z,0.50
2023-03-15T04:00:04.754Z,0.50
2023-03-15T04:02:34.175Z,0.40
2023-03-15T04:05:02.591Z,0.57
2023-03-15T04:07:30.878Z,0.68
2023-03-15T04:10:02.397Z,0.40
2023-03-15T04:12:30.568Z,0.47
2023-03-15T04:14:58.756Z,0.60
2023-03-15T04:17:26.915Z,0.60
2023-03-15T04:19:55.024Z,0.70
2023-03-15T04:22:23.184Z,0.50
2023-03-15T04:24:51.574Z,0.60
2023-03-15T04:27:21.100Z,0.65
2023-03-15T04:29:49.196Z,0.50
2023-03-15T04:32:18.120Z,0.60
2023-03-15T04:34:51.372Z,0.50
2023-03-15T04:37:19.664Z,0.73
2023-03-15T04:39:47.786Z,0.50
2023-03-15T04:42:15.949Z,0.57
2023-03-15T04:44:45.471Z,0.43
2023-03-15T04:47:13.575Z,0.43
2023-03-15T04:49:41.759Z,0.47
2023-03-15T04:52:10.094Z,0.50
2023-03-15T04:54:39.369Z,0.65
2023-03-15T04:57:07.568Z,0.50
2023-03-15T04:59:35.706Z,0.35
2023-03-15T05:02:05.447Z,0.45
2023-03-15T05:04:33.624Z,0.45
2023-03-15T05:07:01.742Z,0.55
2023-03-15T05:09:29.875Z,0.45
2023-03-15T05:11:57.979Z,0.40
2023-03-15T05:14:26.224Z,0.60
2023-03-15T05:16:56.029Z,0.43
2023-03-15T05:19:25.700Z,0.75
2023-03-15T05:21:54.733Z,0.35
2023-03-15T05:24:23.530Z,0.40
2023-03-15T05:26:54.345Z,0.40
2023-03-15T05:29:23.189Z,0.50
2023-03-15T05:31:52.440Z,0.40
2023-03-15T05:34:24.168Z,0.53
2023-03-15T05:36:53.782Z,0.50
2023-03-15T05:39:22.963Z,0.50
2023-03-15T05:41:51.772Z,0.40
2023-03-15T05:44:19.978Z,0.60
2023-03-15T05:46:48.084Z,0.30
2023-03-15T05:49:16.224Z,0.30
2023-03-15T05:51:44.339Z,0.40
2023-03-15T05:54:13.893Z,0.63
2023-03-15T05:56:42.026Z,0.40
2023-03-15T05:59:10.175Z,0.38
2023-03-15T06:01:38.318Z,0.40
2023-03-15T06:04:06.537Z,0.50
2023-03-15T06:06:34.709Z,0.43
2023-03-15T06:09:03.150Z,0.50
2023-03-15T06:11:32.649Z,0.40
2023-03-15T06:14:00.829Z,0.30
2023-03-15T06:16:29.042Z,0.40
2023-03-15T06:18:57.228Z,0.45
2023-03-15T06:21:25.451Z,0.40
2023-03-15T06:23:53.633Z,0.50
2023-03-15T06:26:23.023Z,0.45
2023-03-15T06:28:52.588Z,0.50
2023-03-15T06:31:20.719Z,0.30
2023-03-15T06:33:48.844Z,0.35
2023-03-15T06:36:17.038Z,0.50
2023-03-15T06:38:45.188Z,0.40
2023-03-15T06:41:15.436Z,0.30
2023-03-15T06:43:43.678Z,0.50
2023-03-15T06:46:13.347Z,0.40
2023-03-15T06:48:41.493Z,0.40
2023-03-15T06:51:09.682Z,0.40
2023-03-15T06:53:38.403Z,0.40
2023-03-15T06:56:07.130Z,0.50
2023-03-15T06:58:35.279Z,0.30
2023-03-15T07:01:03.525Z,0.50
2023-03-15T07:03:33.094Z,0.55
2023-03-15T07:06:01.285Z,0.40
2023-03-15T07:08:29.385Z,0.43
2023-03-15T07:10:57.740Z,0.38
2023-03-15T07:13:25.926Z,0.30
2023-03-15T07:15:54.641Z,0.50
2023-03-15T07:18:23.092Z,0.20
2023-03-15T07:20:58.730Z,0.40
2023-03-15T07:23:26.902Z,0.25
2023-03-15T07:25:55.838Z,0.32
2023-03-15T07:28:24.879Z,0.40
2023-03-15T07:30:57.565Z,0.30
2023-03-15T07:33:27.277Z,0.30
2023-03-15T07:35:56.379Z,0.40
2023-03-15T07:38:28.869Z,0.50
2023-03-15T07:40:57.463Z,0.30
2023-03-15T07:43:25.685Z,0.30
2023-03-15T07:45:53.863Z,0.30
2023-03-15T07:48:22.005Z,0.30
2023-03-15T07:50:50.703Z,0.40
2023-03-15T07:53:18.823Z,0.40
2023-03-15T07:55:49.858Z,0.50
2023-03-15T07:58:20.275Z,0.45
2023-03-15T08:00:49.055Z,0.60
2023-03-15T08:03:17.416Z,0.30
2023-03-15T08:05:45.647Z,0.22
2023-03-15T08:08:13.828Z,0.57
2023-03-15T08:10:43.271Z,0.20
2023-03-15T08:13:13.034Z,0.40
2023-03-15T08:15:41.436Z,0.30
2023-03-15T08:18:09.578Z,0.40
2023-03-15T08:20:37.789Z,0.30
2023-03-15T08:23:06.326Z,0.30
2023-03-15T08:25:34.492Z,0.40
2023-03-15T08:28:02.620Z,0.22
2023-03-15T08:30:32.132Z,0.50
2023-03-15T08:33:00.329Z,0.20
2023-03-15T08:35:28.675Z,0.40
2023-03-15T08:37:56.854Z,0.20
2023-03-15T08:40:25.069Z,0.20
2023-03-15T08:42:53.726Z,0.35
2023-03-15T08:45:23.989Z,0.30
2023-03-15T08:47:56.938Z,0.25
2023-03-15T08:50:26.755Z,0.20
2023-03-15T08:55:22.875Z,0.40
2023-03-15T08:57:51.130Z,0.20
2023-03-15T09:00:22.929Z,0.40
2023-03-15T09:02:53.409Z,0.43
2023-03-15T09:05:22.396Z,0.25
2023-03-15T09:07:53.136Z,0.33
2023-03-15T09:10:22.147Z,0.30
2023-03-15T09:12:53.668Z,0.20
2023-03-15T09:15:22.052Z,0.30
2023-03-15T09:17:52.070Z,0.30
2023-03-15T09:20:24.007Z,0.22
2023-03-15T09:22:53.680Z,0.30
2023-03-15T09:27:50.642Z,0.30
2023-03-15T09:30:19.851Z,0.47
2023-03-15T09:32:48.431Z,0.20
2023-03-15T09:35:18.275Z,0.20
2023-03-15T09:37:48.771Z,0.22
2023-03-15T09:40:21.032Z,0.25
2023-03-15T09:43:15.114Z,0.20
2023-03-15T09:45:56.460Z,0.20
2023-03-15T09:48:32.409Z,0.30
2023-03-15T09:51:06.041Z,0.40
2023-03-15T09:53:41.348Z,0.32
2023-03-15T09:56:23.717Z,0.20
2023-03-15T09:58:55.545Z,0.20
2023-03-15T10:01:29.077Z,0.30
2023-03-15T10:03:57.478Z,0.25
2023-03-15T10:06:29.995Z,0.40
2023-03-15T10:09:01.270Z,0.20
2023-03-15T10:11:38.742Z,0.28
2023-03-15T10:14:22.765Z,0.20
2023-03-15T10:16:52.562Z,0.30
2023-03-15T10:19:29.973Z,0.30
2023-03-15T10:22:03.260Z,0.35
2023-03-15T10:24:40.988Z,0.17
2023-03-15T10:27:16.897Z,0.20
2023-03-15T10:29:46.838Z,0.32
2023-03-15T10:32:19.046Z,0.30
2023-03-15T10:34:51.084Z,0.20
2023-03-15T10:37:19.318Z,0.30
2023-03-15T10:39:53.434Z,0.10
2023-03-15T10:42:29.954Z,0.28
2023-03-15T10:44:58.725Z,0.30
2023-03-15T10:47:28.217Z,0.50
2023-03-15T10:50:00.619Z,0.20
2023-03-15T10:52:34.975Z,0.20
2023-03-15T10:55:07.622Z,0.38
2023-03-15T10:57:39.097Z,0.47
2023-03-15T11:00:24.046Z,0.17
2023-03-15T11:03:01.619Z,0.20
2023-03-15T11:05:33.228Z,0.20
2023-03-15T11:08:02.408Z,0.20
2023-03-15T11:10:35.788Z,0.30
2023-03-15T11:13:15.712Z,0.15
2023-03-15T11:15:53.897Z,0.20
2023-03-15T11:18:28.466Z,0.22
2023-03-15T11:20:58.326Z,0.20
2023-03-15T11:23:29.376Z,0.30
2023-03-15T11:25:59.324Z,0.20
2023-03-15T11:28:31.016Z,0.20
2023-03-15T11:31:01.005Z,0.20
2023-03-15T11:33:39.864Z,0.20
2023-03-15T11:36:14.395Z,0.30
2023-03-15T11:38:45.237Z,0.10
2023-03-15T11:41:27.648Z,0.30
2023-03-15T11:44:03.749Z,0.20
2023-03-15T11:46:35.590Z,0.30
2023-03-15T11:49:10.531Z,0.30
2023-03-15T11:51:38.801Z,0.20
2023-03-15T11:54:12.517Z,0.17
2023-03-15T11:56:51.471Z,0.20
2023-03-15T11:59:21.784Z,0.28
2023-03-15T12:01:52.405Z,0.10
2023-03-15T12:04:51.126Z,0.30
2023-03-15T12:07:38.432Z,0.40
2023-03-15T12:10:35.241Z,0.30
2023-03-15T12:13:24.709Z,0.25
2023-03-15T12:15:53.918Z,0.20
2023-03-15T12:18:28.147Z,0.20
2023-03-15T12:21:08.752Z,0.20
2023-03-15T12:23:42.612Z,0.20
2023-03-15T12:26:29.048Z,0.20
2023-03-15T12:29:12.801Z,0.52
2023-03-15T12:31:58.881Z,0.22
2023-03-15T12:34:38.275Z,0.22
2023-03-15T12:37:09.616Z,0.30
2023-03-15T12:39:44.502Z,0.20
2023-03-15T12:42:54.682Z,0.20
2023-03-15T12:45:46.554Z,0.20
2023-03-15T12:48:28.801Z,0.20
2023-03-15T12:51:11.435Z,0.28
2023-03-15T12:53:47.670Z,0.20
2023-03-15T12:56:45.941Z,0.40
2023-03-15T12:59:21.824Z,0.20
2023-03-15T13:01:52.378Z,0.20
2023-03-15T13:04:21.837Z,0.32
2023-03-15T13:06:58.580Z,0.13
2023-03-15T13:09:54.654Z,0.20
2023-03-15T13:12:28.513Z,0.20
2023-03-15T13:15:02.621Z,0.10
2023-03-15T13:17:41.702Z,0.20
2023-03-15T13:20:24.633Z,0.13
2023-03-15T13:23:00.481Z,0.10
2023-03-15T13:25:34.961Z,0.10
2023-03-15T13:28:08.728Z,0.25
2023-03-15T13:30:40.185Z,0.20
2023-03-15T13:33:20.998Z,0.22
2023-03-15T13:35:55.413Z,0.30
2023-03-15T13:38:27.246Z,0.20
2023-03-15T13:40:56.110Z,0.20
2023-03-15T13:43:28.136Z,0.28
2023-03-15T13:45:59.378Z,0.20
2023-03-15T13:48:34.455Z,0.30
2023-03-15T13:51:06.115Z,0.20
2023-03-15T13:53:49.005Z,0.20
2023-03-15T13:56:20.086Z,0.20
2023-03-15T13:58:49.773Z,0.10
2023-03-15T14:01:19.202Z,0.20
2023-03-15T14:03:57.606Z,0.17
2023-03-15T14:09:00.477Z,0.15
2023-03-15T14:11:37.413Z,0.10
2023-03-15T14:14:23.163Z,0.10
2023-03-15T14:17:04.253Z,0.20
2023-03-15T14:19:36.922Z,0.10
2023-03-15T14:22:15.768Z,0.28
2023-03-15T14:24:47.615Z,0.10
2023-03-15T14:27:17.934Z,0.15
2023-03-15T14:29:49.555Z,0.10
2023-03-15T14:32:27.824Z,0.17
2023-03-15T14:35:03.682Z,0.22
2023-03-15T14:37:36.771Z,0.13
2023-03-15T14:40:16.900Z,0.10
2023-03-15T14:42:45.438Z,0.10
2023-03-15T14:50:28.930Z,0.20
2023-03-15T14:52:59.259Z,0.20
2023-03-15T14:55:33.385Z,0.20
2023-03-15T14:58:01.874Z,0.30
2023-03-15T15:00:30.355Z,0.20
2023-03-15T15:02:59.375Z,0.15
2023-03-15T15:05:31.530Z,0.20
2023-03-15T15:08:05.248Z,0.20
2023-03-15T15:10:34.929Z,0.20
2023-03-15T15:13:06.806Z,0.10
2023-03-15T15:15:53.554Z,0.20
2023-03-15T15:18:24.179Z,0.30
2023-03-15T15:20:55.932Z,0.20
2023-03-15T15:23:27.504Z,0.20
2023-03-15T15:25:58.601Z,0.20
2023-03-15T15:28:35.508Z,0.20
2023-03-15T15:31:06.790Z,0.20
2023-03-15T15:33:35.036Z,0.20
2023-03-15T15:36:04.977Z,0.20
2023-03-15T15:38:38.922Z,0.08
2023-03-15T15:41:12.703Z,0.20
2023-03-15T15:43:40.880Z,0.10
2023-03-15T15:46:13.553Z,0.10
2023-03-15T15:48:42.722Z,0.10
2023-03-15T15:51:23.994Z,0.10
2023-03-15T15:53:53.529Z,0.15
2023-03-15T15:56:23.512Z,0.10
2023-03-15T15:58:51.750Z,0.10
2023-03-15T16:01:19.891Z,0.20
2023-03-15T16:03:48.040Z,0.10
2023-03-15T16:06:20.099Z,0.20
2023-03-15T16:08:50.805Z,0.20
2023-03-15T16:11:19.884Z,0.10
2023-03-15T16:13:50.992Z,0.20
2023-03-15T16:16:19.852Z,0.10
2023-03-15T16:18:48.043Z,0.20
2023-03-15T16:21:23.540Z,0.10
2023-03-15T16:24:00.359Z,0.40
2023-03-15T16:26:29.026Z,0.10
2023-03-15T16:31:25.169Z,0.20
2023-03-15T16:33:53.331Z,0.20
2023-03-15T16:36:25.348Z,0.20
2023-03-15T16:38:53.558Z,0.20
2023-03-15T16:41:21.657Z,0.13
2023-03-15T16:43:49.796Z,0.10
2023-03-15T16:46:18.491Z,0.10
2023-03-15T16:51:17.087Z,0.20
2023-03-15T16:53:46.757Z,0.20
2023-03-15T16:56:16.427Z,0.30
2023-03-15T16:58:45.912Z,0.30
2023-03-15T17:01:14.046Z,0.20
2023-03-15T17:03:42.784Z,0.10
2023-03-15T17:06:20.161Z,0.20
2023-03-15T17:08:50.324Z,0.20
2023-03-15T17:11:19.266Z,0.20
2023-03-15T17:13:47.684Z,0.15
2023-03-15T17:16:17.010Z,0.20
2023-03-15T17:18:47.754Z,0.20
2023-03-15T17:21:17.664Z,0.30
2023-03-15T17:23:46.976Z,0.30
2023-03-15T17:26:19.119Z,0.20
2023-03-15T17:28:47.667Z,0.10
2023-03-15T17:31:24.974Z,0.30
2023-03-15T17:33:53.377Z,0.20
2023-03-15T17:36:24.598Z,0.30
2023-03-15T17:38:54.554Z,0.30
2023-03-15T17:41:28.163Z,0.30
2023-03-15T17:43:56.635Z,0.20
2023-03-15T17:46:30.101Z,0.30
2023-03-15T17:48:59.303Z,0.20
2023-03-15T17:51:30.265Z,0.20
2023-03-15T17:53:59.459Z,0.30
2023-03-15T18:01:27.932Z,0.20
2023-03-15T18:03:57.231Z,0.43
2023-03-15T18:08:53.872Z,0.30
2023-03-15T18:11:26.384Z,0.20
2023-03-15T18:13:56.542Z,0.30
2023-03-15T18:16:25.140Z,0.20
2023-03-15T18:18:53.309Z,0.30
2023-03-15T18:21:24.154Z,0.30
2023-03-15T18:23:52.727Z,0.40
2023-03-15T18:26:21.772Z,0.20
2023-03-15T18:28:50.044Z,0.30
2023-03-15T18:31:21.427Z,0.30
2023-03-15T18:33:50.413Z,0.30
2023-03-15T18:36:19.153Z,0.32
2023-03-15T18:38:47.411Z,0.30
2023-03-15T18:41:20.437Z,0.40
2023-03-15T18:43:51.440Z,0.40
2023-03-15T18:46:22.593Z,0.43
2023-03-15T18:48:53.492Z,0.30
2023-03-15T18:51:25.712Z,0.40
2023-03-15T18:53:54.334Z,0.40
2023-03-15T18:56:24.662Z,0.37
2023-03-15T18:58:53.919Z,0.40
2023-03-15T19:01:25.007Z,0.50
2023-03-15T19:03:54.811Z,0.30
2023-03-15T19:06:23.581Z,0.40
2023-03-15T19:08:54.239Z,0.50
2023-03-15T19:11:24.086Z,0.30
2023-03-15T19:13:52.574Z,0.50
2023-03-15T19:16:21.561Z,0.50
2023-03-15T19:18:52.351Z,0.20
2023-03-15T19:21:21.185Z,0.40
2023-03-15T19:23:49.409Z,0.40
2023-03-15T19:26:17.578Z,0.40
2023-03-15T19:28:45.736Z,0.40
2023-03-15T19:31:13.998Z,0.40
2023-03-15T19:33:42.218Z,0.40
2023-03-15T19:36:11.973Z,0.38
2023-03-15T19:38:40.242Z,0.40
2023-03-15T19:41:12.413Z,0.50
2023-03-15T19:43:43.344Z,0.38
2023-03-15T19:46:13.915Z,0.40
2023-03-15T19:48:42.555Z,0.43
2023-03-15T19:51:12.177Z,0.47
2023-03-15T19:56:09.976Z,0.60
2023-03-15T19:58:38.138Z,0.50
2023-03-15T20:01:06.465Z,0.70
2023-03-15T20:03:35.222Z,0.40
2023-03-15T20:06:09.056Z,0.60
2023-03-15T20:08:39.335Z,0.52
2023-03-15T20:11:07.995Z,0.60
2023-03-15T20:13:37.027Z,0.60
2023-03-15T20:16:06.083Z,0.52
2023-03-15T20:18:34.308Z,0.60
2023-03-15T20:21:02.449Z,0.80
2023-03-15T20:23:30.768Z,0.50
2023-03-15T20:26:09.882Z,0.50
2023-03-15T20:28:38.472Z,0.60
2023-03-15T20:31:08.672Z,0.50
2023-03-15T20:33:37.040Z,0.50
2023-03-15T20:36:06.268Z,0.70
2023-03-15T20:38:37.169Z,0.60
2023-03-15T20:41:07.961Z,0.70
2023-03-15T20:43:36.855Z,0.50
2023-03-15T20:46:05.255Z,0.70
2023-03-15T20:48:36.060Z,0.80
2023-03-15T20:51:05.259Z,0.75
2023-03-15T20:53:34.769Z,0.63
2023-03-15T20:56:03.588Z,0.70
2023-03-15T20:58:33.128Z,0.77
2023-03-15T21:01:06.080Z,0.68
2023-03-15T21:03:35.301Z,0.82
2023-03-15T21:06:04.470Z,0.60
2023-03-15T21:08:33.313Z,0.80
2023-03-15T21:11:01.897Z,0.63
2023-03-15T21:13:30.100Z,0.80
2023-03-15T21:16:00.475Z,0.88
2023-03-15T21:18:28.723Z,0.77
2023-03-15T21:20:58.319Z,0.85
2023-03-15T21:25:56.637Z,0.70
2023-03-15T21:28:25.192Z,0.80
2023-03-15T21:30:54.105Z,0.75
2023-03-15T21:33:25.340Z,0.70
2023-03-15T21:35:53.658Z,0.95
2023-03-15T21:38:21.834Z,0.95
2023-03-15T21:40:52.494Z,0.88
2023-03-15T21:43:20.876Z,0.70
2023-03-15T21:45:49.135Z,0.68
2023-03-15T21:48:17.967Z,0.82
2023-03-15T21:50:47.475Z,0.77
2023-03-15T21:53:15.635Z,0.85
2023-03-15T21:55:46.320Z,1.02
2023-03-15T21:58:14.887Z,1.00
2023-03-15T22:00:43.112Z,0.80
2023-03-15T22:03:13.571Z,1.10
2023-03-15T22:05:42.058Z,0.73
2023-03-15T22:08:11.628Z,1.10
2023-03-15T22:10:39.776Z,0.60
2023-03-15T22:13:07.942Z,1.00
2023-03-15T22:15:36.069Z,0.90
2023-03-15T22:18:04.529Z,0.82
2023-03-15T22:20:32.684Z,0.88
2023-03-15T22:23:04.355Z,0.80
2023-03-15T22:25:34.026Z,0.80
2023-03-15T22:30:31.467Z,0.90
2023-03-15T22:33:00.063Z,0.82
2023-03-15T22:35:28.345Z,0.85
2023-03-15T22:37:58.220Z,0.70
2023-03-15T22:40:28.482Z,0.77
2023-03-15T22:42:58.457Z,0.80
2023-03-15T22:45:27.113Z,0.75
2023-03-15T22:47:55.387Z,0.70
2023-03-15T22:50:24.074Z,1.10
2023-03-15T22:52:52.626Z,1.00
2023-03-15T22:55:21.150Z,0.63
2023-03-15T22:57:49.576Z,0.80
2023-03-15T23:00:23.278Z,0.90
2023-03-15T23:02:51.698Z,0.90
2023-03-15T23:05:21.356Z,0.90
2023-03-15T23:10:17.686Z,1.00
2023-03-15T23:12:46.057Z,0.75
2023-03-15T23:15:14.915Z,0.80
2023-03-15T23:17:46.052Z,1.00
2023-03-15T23:20:15.810Z,0.90
2023-03-15T23:25:13.520Z,0.80
2023-03-15T23:27:41.957Z,0.80
2023-03-15T23:30:11.745Z,0.90
2023-03-15T23:32:40.101Z,0.88
2023-03-15T23:35:42.059Z,0.80
2023-03-15T23:38:10.216Z,0.90
2023-03-15T23:40:38.469Z,0.85
2023-03-15T23:43:09.255Z,0.63
2023-03-15T23:45:37.421Z,0.70
2023-03-15T23:48:05.953Z,0.80
2023-03-15T23:50:34.116Z,0.75
2023-03-15T23:53:03.645Z,0.77
2023-03-15T23:55:33.348Z,0.73
2023-03-15T23:58:01.585Z,0.90
